sensor_id;sensor_type;location;lat;lon;timestamp;temperature;humidity
71627;DHT22;59475;52.464;13.590;2024-02-04T00:01:17;7.92;91.06
71627;DHT22;59475;52.464;13.590;2024-02-04T00:03:42;7.97;90.95
71627;DHT22;59475;52.464;13.590;2024-02-04T00:06:08;8.05;90.66
71627;DHT22;59475;52.464;13.590;2024-02-04T00:08:33;7.99;90.18
71627;DHT22;59475;52.464;13.590;2024-02-04T00:10:59;8.00;88.68
71627;DHT22;59475;52.464;13.590;2024-02-04T00:13:24;7.97;88.62
71627;DHT22;59475;52.464;13.590;2024-02-04T00:15:49;7.93;88.30
71627;DHT22;59475;52.464;13.590;2024-02-04T00:18:15;7.97;87.60
71627;DHT22;59475;52.464;13.590;2024-02-04T00:20:40;7.96;87.96
71627;DHT22;59475;52.464;13.590;2024-02-04T00:23:06;7.95;88.37
71627;DHT22;59475;52.464;13.590;2024-02-04T00:25:31;7.92;88.31
71627;DHT22;59475;52.464;13.590;2024-02-04T00:27:56;8.03;86.88
71627;DHT22;59475;52.464;13.590;2024-02-04T00:30:22;8.03;87.10
71627;DHT22;59475;52.464;13.590;2024-02-04T00:32:47;8.02;87.31
71627;DHT22;59475;52.464;13.590;2024-02-04T00:35:12;7.97;87.71
71627;DHT22;59475;52.464;13.590;2024-02-04T00:37:38;7.96;86.67
71627;DHT22;59475;52.464;13.590;2024-02-04T00:40:03;8.00;87.20
71627;DHT22;59475;52.464;13.590;2024-02-04T00:42:29;7.95;87.45
71627;DHT22;59475;52.464;13.590;2024-02-04T00:44:54;7.93;87.09
71627;DHT22;59475;52.464;13.590;2024-02-04T00:47:20;7.96;87.27
71627;DHT22;59475;52.464;13.590;2024-02-04T00:49:45;7.92;88.04
71627;DHT22;59475;52.464;13.590;2024-02-04T00:52:10;7.86;88.28
71627;DHT22;59475;52.464;13.590;2024-02-04T00:54:36;7.76;88.71
71627;DHT22;59475;52.464;13.590;2024-02-04T00:57:01;7.71;88.42
71627;DHT22;59475;52.464;13.590;2024-02-04T00:59:27;7.68;88.38
71627;DHT22;59475;52.464;13.590;2024-02-04T01:01:52;7.65;88.02
71627;DHT22;59475;52.464;13.590;2024-02-04T01:04:17;7.61;87.26
71627;DHT22;59475;52.464;13.590;2024-02-04T01:06:43;7.51;87.27
71627;DHT22;59475;52.464;13.590;2024-02-04T01:09:08;7.47;87.44
71627;DHT22;59475;52.464;13.590;2024-02-04T01:11:34;7.43;87.39
71627;DHT22;59475;52.464;13.590;2024-02-04T01:13:59;7.35;87.50
71627;DHT22;59475;52.464;13.590;2024-02-04T01:16:24;7.35;86.81
71627;DHT22;59475;52.464;13.590;2024-02-04T01:18:50;7.35;87.08
71627;DHT22;59475;52.464;13.590;2024-02-04T01:21:15;7.35;87.04
71627;DHT22;59475;52.464;13.590;2024-02-04T01:23:40;7.28;87.42
71627;DHT22;59475;52.464;13.590;2024-02-04T01:26:06;7.21;87.10
71627;DHT22;59475;52.464;13.590;2024-02-04T01:28:31;7.14;87.31
71627;DHT22;59475;52.464;13.590;2024-02-04T01:30:56;7.12;87.30
71627;DHT22;59475;52.464;13.590;2024-02-04T01:33:22;7.10;87.55
71627;DHT22;59475;52.464;13.590;2024-02-04T01:35:47;7.02;88.15
71627;DHT22;59475;52.464;13.590;2024-02-04T01:38:13;6.92;88.53
71627;DHT22;59475;52.464;13.590;2024-02-04T01:40:38;6.86;88.85
71627;DHT22;59475;52.464;13.590;2024-02-04T01:43:03;6.85;89.33
71627;DHT22;59475;52.464;13.590;2024-02-04T01:45:29;6.92;89.30
71627;DHT22;59475;52.464;13.590;2024-02-04T01:47:54;6.92;89.68
71627;DHT22;59475;52.464;13.590;2024-02-04T01:50:20;6.99;89.51
71627;DHT22;59475;52.464;13.590;2024-02-04T01:52:46;6.96;89.54
71627;DHT22;59475;52.464;13.590;2024-02-04T01:55:13;7.02;89.19
71627;DHT22;59475;52.464;13.590;2024-02-04T01:57:39;7.02;89.10
71627;DHT22;59475;52.464;13.590;2024-02-04T02:00:05;6.97;89.35
71627;DHT22;59475;52.464;13.590;2024-02-04T02:02:32;6.95;89.52
71627;DHT22;59475;52.464;13.590;2024-02-04T02:04:59;6.88;90.01
71627;DHT22;59475;52.464;13.590;2024-02-04T02:07:25;6.81;90.46
71627;DHT22;59475;52.464;13.590;2024-02-04T02:09:52;6.76;90.50
71627;DHT22;59475;52.464;13.590;2024-02-04T02:12:25;6.74;90.61
71627;DHT22;59475;52.464;13.590;2024-02-04T02:14:58;6.64;90.81
71627;DHT22;59475;52.464;13.590;2024-02-04T02:18:10;6.59;91.20
71627;DHT22;59475;52.464;13.590;2024-02-04T02:23:34;6.44;91.75
71627;DHT22;59475;52.464;13.590;2024-02-04T02:26:00;6.42;91.74
71627;DHT22;59475;52.464;13.590;2024-02-04T02:28:26;6.41;91.82
71627;DHT22;59475;52.464;13.590;2024-02-04T02:30:51;6.38;91.97
71627;DHT22;59475;52.464;13.590;2024-02-04T02:33:17;6.36;92.00
71627;DHT22;59475;52.464;13.590;2024-02-04T02:35:44;6.27;92.26
71627;DHT22;59475;52.464;13.590;2024-02-04T02:40:46;6.20;92.65
71627;DHT22;59475;52.464;13.590;2024-02-04T02:43:13;6.20;92.59
71627;DHT22;59475;52.464;13.590;2024-02-04T02:45:42;6.28;92.40
71627;DHT22;59475;52.464;13.590;2024-02-04T02:48:10;6.18;92.45
71627;DHT22;59475;52.464;13.590;2024-02-04T02:50:36;6.14;92.74
71627;DHT22;59475;52.464;13.590;2024-02-04T02:53:01;6.11;92.76
71627;DHT22;59475;52.464;13.590;2024-02-04T02:55:26;6.10;92.96
71627;DHT22;59475;52.464;13.590;2024-02-04T02:57:52;6.17;93.03
71627;DHT22;59475;52.464;13.590;2024-02-04T03:00:17;6.14;92.92
71627;DHT22;59475;52.464;13.590;2024-02-04T03:02:43;6.23;93.11
71627;DHT22;59475;52.464;13.590;2024-02-04T03:05:08;6.16;93.21
71627;DHT22;59475;52.464;13.590;2024-02-04T03:07:34;6.23;93.18
71627;DHT22;59475;52.464;13.590;2024-02-04T03:10:00;6.20;93.31
71627;DHT22;59475;52.464;13.590;2024-02-04T03:12:25;6.27;93.35
71627;DHT22;59475;52.464;13.590;2024-02-04T03:14:50;6.30;93.21
71627;DHT22;59475;52.464;13.590;2024-02-04T03:17:16;6.30;93.30
71627;DHT22;59475;52.464;13.590;2024-02-04T03:19:46;6.40;93.36
71627;DHT22;59475;52.464;13.590;2024-02-04T03:22:12;6.40;93.59
71627;DHT22;59475;52.464;13.590;2024-02-04T03:24:37;6.41;93.67
71627;DHT22;59475;52.464;13.590;2024-02-04T03:27:03;6.48;93.51
71627;DHT22;59475;52.464;13.590;2024-02-04T03:29:28;6.45;93.70
71627;DHT22;59475;52.464;13.590;2024-02-04T03:31:55;6.48;93.76
71627;DHT22;59475;52.464;13.590;2024-02-04T03:34:21;6.54;93.77
71627;DHT22;59475;52.464;13.590;2024-02-04T03:36:46;6.54;93.81
71627;DHT22;59475;52.464;13.590;2024-02-04T03:39:11;6.55;93.82
71627;DHT22;59475;52.464;13.590;2024-02-04T03:41:37;6.63;93.44
71627;DHT22;59475;52.464;13.590;2024-02-04T03:44:02;6.64;93.56
71627;DHT22;59475;52.464;13.590;2024-02-04T03:46:28;6.65;93.17
71627;DHT22;59475;52.464;13.590;2024-02-04T03:48:53;6.72;93.07
71627;DHT22;59475;52.464;13.590;2024-02-04T03:51:19;6.72;93.01
71627;DHT22;59475;52.464;13.590;2024-02-04T03:53:45;6.75;92.87
71627;DHT22;59475;52.464;13.590;2024-02-04T03:56:10;6.76;92.77
71627;DHT22;59475;52.464;13.590;2024-02-04T03:58:36;6.72;92.80
71627;DHT22;59475;52.464;13.590;2024-02-04T04:01:01;6.74;92.64
71627;DHT22;59475;52.464;13.590;2024-02-04T04:03:27;6.75;92.66
71627;DHT22;59475;52.464;13.590;2024-02-04T04:05:55;6.79;92.19
71627;DHT22;59475;52.464;13.590;2024-02-04T04:08:21;6.79;92.33
71627;DHT22;59475;52.464;13.590;2024-02-04T04:10:46;6.76;92.19
71627;DHT22;59475;52.464;13.590;2024-02-04T04:13:12;6.78;92.14
71627;DHT22;59475;52.464;13.590;2024-02-04T04:15:38;6.76;91.76
71627;DHT22;59475;52.464;13.590;2024-02-04T04:18:04;6.71;91.93
71627;DHT22;59475;52.464;13.590;2024-02-04T04:20:29;6.67;91.96
71627;DHT22;59475;52.464;13.590;2024-02-04T04:22:54;6.65;91.72
71627;DHT22;59475;52.464;13.590;2024-02-04T04:25:20;6.67;91.64
71627;DHT22;59475;52.464;13.590;2024-02-04T04:27:45;6.64;91.76
71627;DHT22;59475;52.464;13.590;2024-02-04T04:30:11;6.61;91.72
71627;DHT22;59475;52.464;13.590;2024-02-04T04:32:36;6.52;91.93
71627;DHT22;59475;52.464;13.590;2024-02-04T04:35:02;6.47;92.04
71627;DHT22;59475;52.464;13.590;2024-02-04T04:37:27;6.47;91.84
71627;DHT22;59475;52.464;13.590;2024-02-04T04:39:52;6.41;91.95
71627;DHT22;59475;52.464;13.590;2024-02-04T04:42:18;6.38;91.94
71627;DHT22;59475;52.464;13.590;2024-02-04T04:44:43;6.34;92.00
71627;DHT22;59475;52.464;13.590;2024-02-04T04:47:08;6.34;91.73
71627;DHT22;59475;52.464;13.590;2024-02-04T04:49:34;6.37;91.88
71627;DHT22;59475;52.464;13.590;2024-02-04T04:51:59;6.38;91.61
71627;DHT22;59475;52.464;13.590;2024-02-04T04:54:25;6.36;91.48
71627;DHT22;59475;52.464;13.590;2024-02-04T04:56:50;6.31;91.56
71627;DHT22;59475;52.464;13.590;2024-02-04T04:59:17;6.28;91.68
71627;DHT22;59475;52.464;13.590;2024-02-04T05:01:46;6.26;91.64
71627;DHT22;59475;52.464;13.590;2024-02-04T05:04:11;6.24;91.69
71627;DHT22;59475;52.464;13.590;2024-02-04T05:06:37;6.20;91.92
71627;DHT22;59475;52.464;13.590;2024-02-04T05:09:02;6.20;91.97
71627;DHT22;59475;52.464;13.590;2024-02-04T05:11:28;6.16;92.06
71627;DHT22;59475;52.464;13.590;2024-02-04T05:13:53;6.14;91.88
71627;DHT22;59475;52.464;13.590;2024-02-04T05:16:19;6.17;92.02
71627;DHT22;59475;52.464;13.590;2024-02-04T05:18:45;6.24;91.90
71627;DHT22;59475;52.464;13.590;2024-02-04T05:21:10;6.18;91.95
71627;DHT22;59475;52.464;13.590;2024-02-04T05:23:37;6.10;92.20
71627;DHT22;59475;52.464;13.590;2024-02-04T05:26:03;6.09;92.27
71627;DHT22;59475;52.464;13.590;2024-02-04T05:28:29;6.09;92.26
71627;DHT22;59475;52.464;13.590;2024-02-04T05:30:55;6.06;92.37
71627;DHT22;59475;52.464;13.590;2024-02-04T05:33:20;6.05;92.51
71627;DHT22;59475;52.464;13.590;2024-02-04T05:35:46;5.99;92.61
71627;DHT22;59475;52.464;13.590;2024-02-04T05:38:11;5.98;92.64
71627;DHT22;59475;52.464;13.590;2024-02-04T05:40:36;5.98;92.63
71627;DHT22;59475;52.464;13.590;2024-02-04T05:43:02;5.98;92.66
71627;DHT22;59475;52.464;13.590;2024-02-04T05:45:32;5.92;92.76
71627;DHT22;59475;52.464;13.590;2024-02-04T05:47:58;5.95;92.54
71627;DHT22;59475;52.464;13.590;2024-02-04T05:50:23;5.98;92.26
71627;DHT22;59475;52.464;13.590;2024-02-04T05:52:48;5.98;92.19
71627;DHT22;59475;52.464;13.590;2024-02-04T05:55:14;6.00;92.00
71627;DHT22;59475;52.464;13.590;2024-02-04T05:57:40;5.96;92.22
71627;DHT22;59475;52.464;13.590;2024-02-04T06:00:07;6.00;92.23
71627;DHT22;59475;52.464;13.590;2024-02-04T06:02:33;5.98;92.27
71627;DHT22;59475;52.464;13.590;2024-02-04T06:04:58;5.96;92.33
71627;DHT22;59475;52.464;13.590;2024-02-04T06:07:24;5.99;91.93
71627;DHT22;59475;52.464;13.590;2024-02-04T06:09:49;6.00;92.04
71627;DHT22;59475;52.464;13.590;2024-02-04T06:12:14;6.00;91.75
71627;DHT22;59475;52.464;13.590;2024-02-04T06:14:40;5.99;91.82
71627;DHT22;59475;52.464;13.590;2024-02-04T06:17:06;5.95;91.97
71627;DHT22;59475;52.464;13.590;2024-02-04T06:19:34;5.98;91.86
71627;DHT22;59475;52.464;13.590;2024-02-04T06:21:59;6.05;91.61
71627;DHT22;59475;52.464;13.590;2024-02-04T06:24:24;6.10;91.47
71627;DHT22;59475;52.464;13.590;2024-02-04T06:26:50;6.18;90.98
71627;DHT22;59475;52.464;13.590;2024-02-04T06:29:15;6.23;90.78
71627;DHT22;59475;52.464;13.590;2024-02-04T06:31:44;6.26;90.75
71627;DHT22;59475;52.464;13.590;2024-02-04T06:34:10;6.30;90.66
71627;DHT22;59475;52.464;13.590;2024-02-04T06:36:36;6.27;90.43
71627;DHT22;59475;52.464;13.590;2024-02-04T06:39:01;6.40;89.74
71627;DHT22;59475;52.464;13.590;2024-02-04T06:41:26;6.40;89.75
71627;DHT22;59475;52.464;13.590;2024-02-04T06:43:52;6.31;89.87
71627;DHT22;59475;52.464;13.590;2024-02-04T06:46:25;6.28;89.92
71627;DHT22;59475;52.464;13.590;2024-02-04T06:48:51;6.36;89.68
71627;DHT22;59475;52.464;13.590;2024-02-04T06:51:16;6.37;89.83
71627;DHT22;59475;52.464;13.590;2024-02-04T06:53:41;6.34;90.11
71627;DHT22;59475;52.464;13.590;2024-02-04T06:56:07;6.30;90.28
71627;DHT22;59475;52.464;13.590;2024-02-04T06:58:32;6.31;90.58
71627;DHT22;59475;52.464;13.590;2024-02-04T07:00:57;6.48;90.50
71627;DHT22;59475;52.464;13.590;2024-02-04T07:03:23;6.48;90.62
71627;DHT22;59475;52.464;13.590;2024-02-04T07:05:48;6.45;90.83
71627;DHT22;59475;52.464;13.590;2024-02-04T07:08:14;6.51;91.05
71627;DHT22;59475;52.464;13.590;2024-02-04T07:10:39;6.52;90.87
71627;DHT22;59475;52.464;13.590;2024-02-04T07:13:05;6.56;90.76
71627;DHT22;59475;52.464;13.590;2024-02-04T07:15:31;6.58;90.69
71627;DHT22;59475;52.464;13.590;2024-02-04T07:17:56;6.59;90.82
71627;DHT22;59475;52.464;13.590;2024-02-04T07:20:22;6.69;90.51
71627;DHT22;59475;52.464;13.590;2024-02-04T07:22:47;6.68;90.52
71627;DHT22;59475;52.464;13.590;2024-02-04T07:25:12;6.65;90.47
71627;DHT22;59475;52.464;13.590;2024-02-04T07:27:38;6.68;90.45
71627;DHT22;59475;52.464;13.590;2024-02-04T07:30:04;6.76;89.64
71627;DHT22;59475;52.464;13.590;2024-02-04T07:32:29;6.72;90.01
71627;DHT22;59475;52.464;13.590;2024-02-04T07:34:55;6.72;89.90
71627;DHT22;59475;52.464;13.590;2024-02-04T07:37:20;6.79;89.45
71627;DHT22;59475;52.464;13.590;2024-02-04T07:39:46;6.82;89.47
71627;DHT22;59475;52.464;13.590;2024-02-04T07:42:11;6.85;89.43
71627;DHT22;59475;52.464;13.590;2024-02-04T07:44:37;6.85;89.33
71627;DHT22;59475;52.464;13.590;2024-02-04T07:47:02;6.85;89.32
71627;DHT22;59475;52.464;13.590;2024-02-04T07:49:28;6.88;89.18
71627;DHT22;59475;52.464;13.590;2024-02-04T07:51:53;6.96;88.78
71627;DHT22;59475;52.464;13.590;2024-02-04T07:54:19;6.97;88.56
71627;DHT22;59475;52.464;13.590;2024-02-04T07:56:44;7.04;88.18
71627;DHT22;59475;52.464;13.590;2024-02-04T07:59:10;7.07;88.49
71627;DHT22;59475;52.464;13.590;2024-02-04T08:01:35;7.03;88.41
71627;DHT22;59475;52.464;13.590;2024-02-04T08:04:00;7.09;88.35
71627;DHT22;59475;52.464;13.590;2024-02-04T08:06:27;7.10;88.29
71627;DHT22;59475;52.464;13.590;2024-02-04T08:08:52;7.12;88.13
71627;DHT22;59475;52.464;13.590;2024-02-04T08:11:18;7.17;88.23
71627;DHT22;59475;52.464;13.590;2024-02-04T08:13:44;7.24;88.23
71627;DHT22;59475;52.464;13.590;2024-02-04T08:16:10;7.28;88.07
71627;DHT22;59475;52.464;13.590;2024-02-04T08:18:35;7.27;88.02
71627;DHT22;59475;52.464;13.590;2024-02-04T08:21:00;7.32;87.98
71627;DHT22;59475;52.464;13.590;2024-02-04T08:23:26;7.38;87.54
71627;DHT22;59475;52.464;13.590;2024-02-04T08:25:51;7.41;87.62
71627;DHT22;59475;52.464;13.590;2024-02-04T08:28:16;7.46;87.55
71627;DHT22;59475;52.464;13.590;2024-02-04T08:30:42;7.52;86.93
71627;DHT22;59475;52.464;13.590;2024-02-04T08:33:07;7.55;86.67
71627;DHT22;59475;52.464;13.590;2024-02-04T08:35:34;7.54;86.55
71627;DHT22;59475;52.464;13.590;2024-02-04T08:37:59;7.57;86.25
71627;DHT22;59475;52.464;13.590;2024-02-04T08:40:24;7.61;86.10
71627;DHT22;59475;52.464;13.590;2024-02-04T08:42:50;7.64;85.75
71627;DHT22;59475;52.464;13.590;2024-02-04T08:45:15;7.65;85.56
71627;DHT22;59475;52.464;13.590;2024-02-04T08:47:40;7.67;85.27
71627;DHT22;59475;52.464;13.590;2024-02-04T08:50:06;7.67;84.82
71627;DHT22;59475;52.464;13.590;2024-02-04T08:52:32;7.74;84.87
71627;DHT22;59475;52.464;13.590;2024-02-04T08:54:57;7.75;84.71
71627;DHT22;59475;52.464;13.590;2024-02-04T08:57:25;7.75;84.51
71627;DHT22;59475;52.464;13.590;2024-02-04T08:59:50;7.76;84.64
71627;DHT22;59475;52.464;13.590;2024-02-04T09:02:15;7.79;84.57
71627;DHT22;59475;52.464;13.590;2024-02-04T09:04:41;7.75;84.68
71627;DHT22;59475;52.464;13.590;2024-02-04T09:07:07;7.79;84.62
71627;DHT22;59475;52.464;13.590;2024-02-04T09:09:33;7.82;84.85
71627;DHT22;59475;52.464;13.590;2024-02-04T09:11:58;7.85;84.42
71627;DHT22;59475;52.464;13.590;2024-02-04T09:14:23;7.89;84.22
71627;DHT22;59475;52.464;13.590;2024-02-04T09:16:49;7.92;84.01
71627;DHT22;59475;52.464;13.590;2024-02-04T09:19:14;7.93;84.00
71627;DHT22;59475;52.464;13.590;2024-02-04T09:21:40;7.93;83.62
71627;DHT22;59475;52.464;13.590;2024-02-04T09:24:05;7.93;83.57
71627;DHT22;59475;52.464;13.590;2024-02-04T09:26:31;7.95;83.48
71627;DHT22;59475;52.464;13.590;2024-02-04T09:28:56;7.96;83.72
71627;DHT22;59475;52.464;13.590;2024-02-04T09:31:21;8.06;83.80
71627;DHT22;59475;52.464;13.590;2024-02-04T09:33:47;8.10;82.96
71627;DHT22;59475;52.464;13.590;2024-02-04T09:36:12;8.16;82.97
71627;DHT22;59475;52.464;13.590;2024-02-04T09:38:37;8.23;82.99
71627;DHT22;59475;52.464;13.590;2024-02-04T09:41:03;8.33;82.23
71627;DHT22;59475;52.464;13.590;2024-02-04T09:43:33;8.38;81.99
71627;DHT22;59475;52.464;13.590;2024-02-04T09:46:00;8.41;81.94
71627;DHT22;59475;52.464;13.590;2024-02-04T09:48:27;8.53;80.95
71627;DHT22;59475;52.464;13.590;2024-02-04T09:50:54;8.53;80.63
71627;DHT22;59475;52.464;13.590;2024-02-04T09:53:21;8.61;80.75
71627;DHT22;59475;52.464;13.590;2024-02-04T09:55:54;8.75;80.81
71627;DHT22;59475;52.464;13.590;2024-02-04T09:58:21;8.69;79.91
71627;DHT22;59475;52.464;13.590;2024-02-04T10:00:47;8.79;79.83
71627;DHT22;59475;52.464;13.590;2024-02-04T10:03:12;8.81;79.09
71627;DHT22;59475;52.464;13.590;2024-02-04T10:05:38;8.88;78.93
71627;DHT22;59475;52.464;13.590;2024-02-04T10:08:03;8.88;78.68
71627;DHT22;59475;52.464;13.590;2024-02-04T10:10:29;8.75;78.55
71627;DHT22;59475;52.464;13.590;2024-02-04T10:12:55;8.82;78.85
71627;DHT22;59475;52.464;13.590;2024-02-04T10:15:20;8.83;78.64
71627;DHT22;59475;52.464;13.590;2024-02-04T10:17:46;8.78;78.51
71627;DHT22;59475;52.464;13.590;2024-02-04T10:20:12;8.73;78.28
71627;DHT22;59475;52.464;13.590;2024-02-04T10:22:38;8.71;78.07
71627;DHT22;59475;52.464;13.590;2024-02-04T10:25:07;8.76;77.88
71627;DHT22;59475;52.464;13.590;2024-02-04T10:27:34;8.85;77.27
71627;DHT22;59475;52.464;13.590;2024-02-04T10:29:59;8.92;77.33
71627;DHT22;59475;52.464;13.590;2024-02-04T10:32:25;9.03;76.47
71627;DHT22;59475;52.464;13.590;2024-02-04T10:34:51;9.03;76.46
71627;DHT22;59475;52.464;13.590;2024-02-04T10:37:16;9.08;76.92
71627;DHT22;59475;52.464;13.590;2024-02-04T10:39:42;9.15;76.64
71627;DHT22;59475;52.464;13.590;2024-02-04T10:42:08;9.09;76.36
71627;DHT22;59475;52.464;13.590;2024-02-04T10:44:36;9.13;76.14
71627;DHT22;59475;52.464;13.590;2024-02-04T10:47:05;9.13;76.07
71627;DHT22;59475;52.464;13.590;2024-02-04T10:49:34;9.16;75.65
71627;DHT22;59475;52.464;13.590;2024-02-04T10:52:05;9.13;75.87
71627;DHT22;59475;52.464;13.590;2024-02-04T10:54:32;9.10;75.74
71627;DHT22;59475;52.464;13.590;2024-02-04T10:57:03;9.12;75.74
71627;DHT22;59475;52.464;13.590;2024-02-04T10:59:31;9.09;75.88
71627;DHT22;59475;52.464;13.590;2024-02-04T11:01:57;9.10;75.73
71627;DHT22;59475;52.464;13.590;2024-02-04T11:04:23;9.08;76.21
71627;DHT22;59475;52.464;13.590;2024-02-04T11:06:49;9.05;75.84
71627;DHT22;59475;52.464;13.590;2024-02-04T11:09:16;8.99;76.39
71627;DHT22;59475;52.464;13.590;2024-02-04T11:11:43;9.05;76.14
71627;DHT22;59475;52.464;13.590;2024-02-04T11:14:11;9.05;76.03
71627;DHT22;59475;52.464;13.590;2024-02-04T11:24:51;8.93;75.81
71627;DHT22;59475;52.464;13.590;2024-02-04T11:27:19;9.03;75.67
71627;DHT22;59475;52.464;13.590;2024-02-04T11:29:45;8.99;75.79
71627;DHT22;59475;52.464;13.590;2024-02-04T11:32:10;9.05;75.32
71627;DHT22;59475;52.464;13.590;2024-02-04T11:34:37;9.02;75.38
71627;DHT22;59475;52.464;13.590;2024-02-04T11:37:16;8.98;75.57
71627;DHT22;59475;52.464;13.590;2024-02-04T11:39:50;8.99;75.56
71627;DHT22;59475;52.464;13.590;2024-02-04T11:42:16;8.92;75.65
71627;DHT22;59475;52.464;13.590;2024-02-04T11:44:43;8.96;75.20
71627;DHT22;59475;52.464;13.590;2024-02-04T11:47:08;8.95;74.73
71627;DHT22;59475;52.464;13.590;2024-02-04T11:49:33;8.85;75.13
71627;DHT22;59475;52.464;13.590;2024-02-04T11:51:59;8.88;75.34
71627;DHT22;59475;52.464;13.590;2024-02-04T11:54:25;8.85;75.81
71627;DHT22;59475;52.464;13.590;2024-02-04T11:56:51;8.85;76.36
71627;DHT22;59475;52.464;13.590;2024-02-04T11:59:26;8.79;75.47
71627;DHT22;59475;52.464;13.590;2024-02-04T12:01:55;8.85;75.38
71627;DHT22;59475;52.464;13.590;2024-02-04T12:04:22;8.88;75.59
71627;DHT22;59475;52.464;13.590;2024-02-04T12:06:47;8.83;75.54
71627;DHT22;59475;52.464;13.590;2024-02-04T12:09:16;8.92;74.91
71627;DHT22;59475;52.464;13.590;2024-02-04T12:11:43;8.93;75.24
71627;DHT22;59475;52.464;13.590;2024-02-04T12:14:10;8.95;74.70
71627;DHT22;59475;52.464;13.590;2024-02-04T12:16:35;8.99;74.81
71627;DHT22;59475;52.464;13.590;2024-02-04T12:19:02;8.96;74.96
71627;DHT22;59475;52.464;13.590;2024-02-04T12:21:31;9.05;74.93
71627;DHT22;59475;52.464;13.590;2024-02-04T12:23:58;9.02;74.92
71627;DHT22;59475;52.464;13.590;2024-02-04T12:26:23;9.02;75.16
71627;DHT22;59475;52.464;13.590;2024-02-04T12:28:52;8.98;74.39
71627;DHT22;59475;52.464;13.590;2024-02-04T12:31:21;8.95;74.70
71627;DHT22;59475;52.464;13.590;2024-02-04T12:33:57;8.91;75.00
71627;DHT22;59475;52.464;13.590;2024-02-04T12:36:29;8.85;74.95
71627;DHT22;59475;52.464;13.590;2024-02-04T12:38:56;8.79;75.13
71627;DHT22;59475;52.464;13.590;2024-02-04T12:41:22;8.67;74.89
71627;DHT22;59475;52.464;13.590;2024-02-04T12:43:52;8.68;75.31
71627;DHT22;59475;52.464;13.590;2024-02-04T12:46:18;8.64;74.72
71627;DHT22;59475;52.464;13.590;2024-02-04T12:48:44;8.65;75.17
71627;DHT22;59475;52.464;13.590;2024-02-04T12:51:10;8.68;74.91
71627;DHT22;59475;52.464;13.590;2024-02-04T12:53:38;8.73;74.75
71627;DHT22;59475;52.464;13.590;2024-02-04T12:56:04;8.69;75.46
71627;DHT22;59475;52.464;13.590;2024-02-04T12:58:29;8.69;75.09
71627;DHT22;59475;52.464;13.590;2024-02-04T13:01:01;8.67;74.32
71627;DHT22;59475;52.464;13.590;2024-02-04T13:03:27;8.65;74.70
71627;DHT22;59475;52.464;13.590;2024-02-04T13:05:59;8.71;74.54
71627;DHT22;59475;52.464;13.590;2024-02-04T13:08:25;8.69;74.12
71627;DHT22;59475;52.464;13.590;2024-02-04T13:10:56;8.73;74.04
71627;DHT22;59475;52.464;13.590;2024-02-04T13:13:22;8.72;74.47
71627;DHT22;59475;52.464;13.590;2024-02-04T13:15:47;8.72;73.94
71627;DHT22;59475;52.464;13.590;2024-02-04T13:18:12;8.71;73.59
71627;DHT22;59475;52.464;13.590;2024-02-04T13:20:41;8.68;73.68
71627;DHT22;59475;52.464;13.590;2024-02-04T13:23:07;8.69;73.57
71627;DHT22;59475;52.464;13.590;2024-02-04T13:25:34;8.72;73.55
71627;DHT22;59475;52.464;13.590;2024-02-04T13:27:59;8.73;73.76
71627;DHT22;59475;52.464;13.590;2024-02-04T13:30:25;8.73;73.43
71627;DHT22;59475;52.464;13.590;2024-02-04T13:32:50;8.67;73.73
71627;DHT22;59475;52.464;13.590;2024-02-04T13:35:16;8.68;73.96
71627;DHT22;59475;52.464;13.590;2024-02-04T13:37:43;8.72;73.82
71627;DHT22;59475;52.464;13.590;2024-02-04T13:40:16;8.71;73.96
71627;DHT22;59475;52.464;13.590;2024-02-04T13:42:43;8.67;74.49
71627;DHT22;59475;52.464;13.590;2024-02-04T13:45:08;8.65;74.06
71627;DHT22;59475;52.464;13.590;2024-02-04T13:47:34;8.67;74.30
71627;DHT22;59475;52.464;13.590;2024-02-04T13:50:00;8.67;74.43
71627;DHT22;59475;52.464;13.590;2024-02-04T13:52:25;8.64;74.30
71627;DHT22;59475;52.464;13.590;2024-02-04T13:54:51;8.62;74.28
71627;DHT22;59475;52.464;13.590;2024-02-04T13:57:16;8.64;74.22
71627;DHT22;59475;52.464;13.590;2024-02-04T13:59:42;8.62;74.51
71627;DHT22;59475;52.464;13.590;2024-02-04T14:02:07;8.64;74.76
71627;DHT22;59475;52.464;13.590;2024-02-04T14:04:36;8.61;74.77
71627;DHT22;59475;52.464;13.590;2024-02-04T14:07:02;8.61;74.99
71627;DHT22;59475;52.464;13.590;2024-02-04T14:09:27;8.62;74.83
71627;DHT22;59475;52.464;13.590;2024-02-04T14:11:54;8.62;74.93
71627;DHT22;59475;52.464;13.590;2024-02-04T14:14:20;8.60;75.25
71627;DHT22;59475;52.464;13.590;2024-02-04T14:16:46;8.62;75.42
71627;DHT22;59475;52.464;13.590;2024-02-04T14:19:12;8.57;75.27
71627;DHT22;59475;52.464;13.590;2024-02-04T14:21:39;8.60;75.54
71627;DHT22;59475;52.464;13.590;2024-02-04T14:24:05;8.57;75.80
71627;DHT22;59475;52.464;13.590;2024-02-04T14:26:31;8.57;75.79
71627;DHT22;59475;52.464;13.590;2024-02-04T14:28:56;8.54;76.03
71627;DHT22;59475;52.464;13.590;2024-02-04T14:31:21;8.55;76.34
71627;DHT22;59475;52.464;13.590;2024-02-04T14:33:47;8.54;76.39
71627;DHT22;59475;52.464;13.590;2024-02-04T14:36:13;8.55;76.45
71627;DHT22;59475;52.464;13.590;2024-02-04T14:38:38;8.54;76.63
71627;DHT22;59475;52.464;13.590;2024-02-04T14:41:04;8.54;76.62
71627;DHT22;59475;52.464;13.590;2024-02-04T14:43:30;8.55;76.62
71627;DHT22;59475;52.464;13.590;2024-02-04T14:45:55;8.58;76.43
71627;DHT22;59475;52.464;13.590;2024-02-04T14:48:20;8.60;76.78
71627;DHT22;59475;52.464;13.590;2024-02-04T14:50:46;8.57;77.00
71627;DHT22;59475;52.464;13.590;2024-02-04T14:53:13;8.54;76.92
71627;DHT22;59475;52.464;13.590;2024-02-04T14:55:39;8.53;77.20
71627;DHT22;59475;52.464;13.590;2024-02-04T14:58:04;8.50;77.21
71627;DHT22;59475;52.464;13.590;2024-02-04T15:00:29;8.53;77.00
71627;DHT22;59475;52.464;13.590;2024-02-04T15:02:55;8.53;77.05
71627;DHT22;59475;52.464;13.590;2024-02-04T15:05:20;8.53;76.98
71627;DHT22;59475;52.464;13.590;2024-02-04T15:07:49;8.53;77.30
71627;DHT22;59475;52.464;13.590;2024-02-04T15:10:16;8.55;76.88
71627;DHT22;59475;52.464;13.590;2024-02-04T15:12:41;8.54;76.83
71627;DHT22;59475;52.464;13.590;2024-02-04T15:15:09;8.51;77.32
71627;DHT22;59475;52.464;13.590;2024-02-04T15:17:35;8.50;76.93
71627;DHT22;59475;52.464;13.590;2024-02-04T15:20:00;8.53;77.20
71627;DHT22;59475;52.464;13.590;2024-02-04T15:22:26;8.51;77.20
71627;DHT22;59475;52.464;13.590;2024-02-04T15:24:52;8.50;77.18
71627;DHT22;59475;52.464;13.590;2024-02-04T15:27:18;8.54;77.07
71627;DHT22;59475;52.464;13.590;2024-02-04T15:29:47;8.48;77.19
71627;DHT22;59475;52.464;13.590;2024-02-04T15:32:13;8.53;77.29
71627;DHT22;59475;52.464;13.590;2024-02-04T15:34:40;8.47;77.31
71627;DHT22;59475;52.464;13.590;2024-02-04T15:37:06;8.48;77.33